sensor_id;sensor_type;location;lat;lon;timestamp;P1;durP1;ratioP1;P2;durP2;ratioP2
20441;SDS011;10380;52.102;20.614;2022-07-12T00:03:27;3.88;;;2.55;;
20441;SDS011;10380;52.102;20.614;2022-07-12T00:08:26;5.00;;;3.15;;
20441;SDS011;10380;52.102;20.614;2022-07-12T00:10:54;5.05;;;3.60;;
20441;SDS011;10380;52.102;20.614;2022-07-12T00:13:21;3.92;;;2.85;;
20441;SDS011;10380;52.102;20.614;2022-07-12T00:15:48;3.50;;;2.65;;
20441;SDS011;10380;52.102;20.614;2022-07-12T00:18:15;6.60;;;3.65;;
20441;SDS011;10380;52.102;20.614;2022-07-12T00:20:44;3.70;;;3.37;;
20441;SDS011;10380;52.102;20.614;2022-07-12T00:23:11;7.43;;;3.97;;
20441;SDS011;10380;52.102;20.614;2022-07-12T00:25:40;5.17;;;3.60;;
20441;SDS011;10380;52.102;20.614;2022-07-12T00:28:08;5.10;;;3.65;;
20441;SDS011;10380;52.102;20.614;2022-07-12T00:30:36;5.60;;;4.28;;
20441;SDS011;10380;52.102;20.614;2022-07-12T00:33:03;4.13;;;3.65;;
20441;SDS011;10380;52.102;20.614;2022-07-12T00:35:31;4.43;;;3.65;;
20441;SDS011;10380;52.102;20.614;2022-07-12T00:37:59;5.75;;;4.10;;
20441;SDS011;10380;52.102;20.614;2022-07-12T00:40:26;5.57;;;3.97;;
20441;SDS011;10380;52.102;20.614;2022-07-12T00:42:55;4.65;;;3.92;;
20441;SDS011;10380;52.102;20.614;2022-07-12T00:45:23;4.65;;;4.25;;
20441;SDS011;10380;52.102;20.614;2022-07-12T00:47:50;4.57;;;3.45;;
20441;SDS011;10380;52.102;20.614;2022-07-12T00:50:20;5.63;;;4.20;;
20441;SDS011;10380;52.102;20.614;2022-07-12T00:52:51;4.82;;;4.05;;
20441;SDS011;10380;52.102;20.614;2022-07-12T00:55:21;5.87;;;3.83;;
20441;SDS011;10380;52.102;20.614;2022-07-12T00:57:49;4.35;;;3.90;;
20441;SDS011;10380;52.102;20.614;2022-07-12T01:00:19;5.78;;;3.95;;
20441;SDS011;10380;52.102;20.614;2022-07-12T01:02:49;7.55;;;4.65;;
20441;SDS011;10380;52.102;20.614;2022-07-12T01:05:21;4.05;;;3.50;;
20441;SDS011;10380;52.102;20.614;2022-07-12T01:07:49;4.27;;;3.03;;
20441;SDS011;10380;52.102;20.614;2022-07-12T01:10:16;3.30;;;2.63;;
20441;SDS011;10380;52.102;20.614;2022-07-12T01:12:43;3.97;;;3.47;;
20441;SDS011;10380;52.102;20.614;2022-07-12T01:15:11;3.53;;;3.23;;
20441;SDS011;10380;52.102;20.614;2022-07-12T01:17:38;4.07;;;3.77;;
20441;SDS011;10380;52.102;20.614;2022-07-12T01:20:06;4.40;;;3.70;;
20441;SDS011;10380;52.102;20.614;2022-07-12T01:22:36;6.07;;;3.47;;
20441;SDS011;10380;52.102;20.614;2022-07-12T01:25:16;5.37;;;3.57;;
20441;SDS011;10380;52.102;20.614;2022-07-12T01:27:43;8.13;;;3.72;;
20441;SDS011;10380;52.102;20.614;2022-07-12T01:30:11;5.57;;;3.70;;
20441;SDS011;10380;52.102;20.614;2022-07-12T01:32:38;4.45;;;3.10;;
20441;SDS011;10380;52.102;20.614;2022-07-12T01:35:12;4.03;;;3.58;;
20441;SDS011;10380;52.102;20.614;2022-07-12T01:37:42;5.50;;;3.40;;
20441;SDS011;10380;52.102;20.614;2022-07-12T01:40:11;4.97;;;3.10;;
20441;SDS011;10380;52.102;20.614;2022-07-12T01:42:41;4.63;;;3.17;;
20441;SDS011;10380;52.102;20.614;2022-07-12T01:45:10;4.83;;;2.90;;
20441;SDS011;10380;52.102;20.614;2022-07-12T01:47:38;5.25;;;3.33;;
20441;SDS011;10380;52.102;20.614;2022-07-12T01:50:06;3.90;;;2.97;;
20441;SDS011;10380;52.102;20.614;2022-07-12T01:52:36;4.53;;;2.90;;
20441;SDS011;10380;52.102;20.614;2022-07-12T01:55:05;6.33;;;2.87;;
20441;SDS011;10380;52.102;20.614;2022-07-12T01:57:32;3.70;;;2.72;;
20441;SDS011;10380;52.102;20.614;2022-07-12T02:00:01;6.67;;;3.13;;
20441;SDS011;10380;52.102;20.614;2022-07-12T02:02:32;4.72;;;3.00;;
20441;SDS011;10380;52.102;20.614;2022-07-12T02:05:01;10.40;;;3.75;;
20441;SDS011;10380;52.102;20.614;2022-07-12T02:07:31;7.82;;;2.58;;
20441;SDS011;10380;52.102;20.614;2022-07-12T02:10:00;6.40;;;2.85;;
20441;SDS011;10380;52.102;20.614;2022-07-12T02:12:28;2.75;;;2.47;;
20441;SDS011;10380;52.102;20.614;2022-07-12T02:14:55;3.33;;;2.50;;
20441;SDS011;10380;52.102;20.614;2022-07-12T02:17:28;7.00;;;3.30;;
20441;SDS011;10380;52.102;20.614;2022-07-12T02:19:55;6.50;;;2.57;;
20441;SDS011;10380;52.102;20.614;2022-07-12T02:22:22;5.10;;;2.92;;
20441;SDS011;10380;52.102;20.614;2022-07-12T02:24:50;5.30;;;2.65;;
20441;SDS011;10380;52.102;20.614;2022-07-12T02:27:17;7.57;;;2.88;;
20441;SDS011;10380;52.102;20.614;2022-07-12T02:29:46;7.00;;;2.88;;
20441;SDS011;10380;52.102;20.614;2022-07-12T02:32:14;5.07;;;2.90;;
20441;SDS011;10380;52.102;20.614;2022-07-12T02:34:43;3.73;;;2.70;;
20441;SDS011;10380;52.102;20.614;2022-07-12T02:37:10;6.83;;;2.97;;
20441;SDS011;10380;52.102;20.614;2022-07-12T02:39:38;6.17;;;3.07;;
20441;SDS011;10380;52.102;20.614;2022-07-12T02:42:05;6.57;;;3.63;;
20441;SDS011;10380;52.102;20.614;2022-07-12T02:44:36;6.07;;;2.97;;
20441;SDS011;10380;52.102;20.614;2022-07-12T02:47:04;6.67;;;3.13;;
20441;SDS011;10380;52.102;20.614;2022-07-12T02:49:37;9.60;;;3.77;;
20441;SDS011;10380;52.102;20.614;2022-07-12T02:52:04;7.23;;;3.47;;
20441;SDS011;10380;52.102;20.614;2022-07-12T02:54:34;7.17;;;4.07;;
20441;SDS011;10380;52.102;20.614;2022-07-12T02:57:01;5.57;;;3.40;;
20441;SDS011;10380;52.102;20.614;2022-07-12T02:59:28;6.17;;;4.27;;
20441;SDS011;10380;52.102;20.614;2022-07-12T03:02:02;3.83;;;3.40;;
20441;SDS011;10380;52.102;20.614;2022-07-12T03:04:30;4.75;;;3.50;;
20441;SDS011;10380;52.102;20.614;2022-07-12T03:06:58;9.60;;;5.28;;
20441;SDS011;10380;52.102;20.614;2022-07-12T03:09:25;4.43;;;3.50;;
20441;SDS011;10380;52.102;20.614;2022-07-12T03:11:52;8.67;;;3.43;;
20441;SDS011;10380;52.102;20.614;2022-07-12T03:14:19;4.37;;;4.00;;
20441;SDS011;10380;52.102;20.614;2022-07-12T03:16:46;9.45;;;3.63;;
20441;SDS011;10380;52.102;20.614;2022-07-12T03:19:16;4.17;;;3.77;;
20441;SDS011;10380;52.102;20.614;2022-07-12T03:21:44;7.87;;;3.57;;
20441;SDS011;10380;52.102;20.614;2022-07-12T03:24:12;6.47;;;3.93;;
20441;SDS011;10380;52.102;20.614;2022-07-12T03:26:39;4.80;;;3.65;;
20441;SDS011;10380;52.102;20.614;2022-07-12T03:29:06;5.63;;;4.07;;
20441;SDS011;10380;52.102;20.614;2022-07-12T03:31:35;5.63;;;4.00;;
20441;SDS011;10380;52.102;20.614;2022-07-12T03:34:04;6.25;;;3.60;;
20441;SDS011;10380;52.102;20.614;2022-07-12T03:36:32;4.55;;;3.67;;
20441;SDS011;10380;52.102;20.614;2022-07-12T03:39:00;6.50;;;3.33;;
20441;SDS011;10380;52.102;20.614;2022-07-12T03:41:28;6.70;;;3.90;;
20441;SDS011;10380;52.102;20.614;2022-07-12T03:43:55;5.87;;;4.00;;
20441;SDS011;10380;52.102;20.614;2022-07-12T03:46:25;5.87;;;3.70;;
20441;SDS011;10380;52.102;20.614;2022-07-12T03:48:55;8.97;;;3.97;;
20441;SDS011;10380;52.102;20.614;2022-07-12T03:51:22;5.78;;;3.72;;
20441;SDS011;10380;52.102;20.614;2022-07-12T03:53:49;4.43;;;3.42;;
20441;SDS011;10380;52.102;20.614;2022-07-12T03:56:18;4.50;;;3.10;;
20441;SDS011;10380;52.102;20.614;2022-07-12T03:59:03;4.80;;;3.23;;
20441;SDS011;10380;52.102;20.614;2022-07-12T04:01:30;5.85;;;3.15;;
20441;SDS011;10380;52.102;20.614;2022-07-12T04:04:01;6.20;;;3.43;;
20441;SDS011;10380;52.102;20.614;2022-07-12T04:06:29;5.10;;;3.75;;
20441;SDS011;10380;52.102;20.614;2022-07-12T04:08:56;7.27;;;3.40;;
20441;SDS011;10380;52.102;20.614;2022-07-12T04:11:23;5.18;;;3.42;;
20441;SDS011;10380;52.102;20.614;2022-07-12T04:13:51;6.15;;;3.70;;
20441;SDS011;10380;52.102;20.614;2022-07-12T04:16:19;4.43;;;3.20;;
20441;SDS011;10380;52.102;20.614;2022-07-12T04:18:46;4.20;;;3.13;;
20441;SDS011;10380;52.102;20.614;2022-07-12T04:21:13;10.27;;;3.47;;
20441;SDS011;10380;52.102;20.614;2022-07-12T04:23:41;5.57;;;3.33;;
20441;SDS011;10380;52.102;20.614;2022-07-12T04:26:08;4.22;;;3.20;;
20441;SDS011;10380;52.102;20.614;2022-07-12T04:28:37;4.18;;;3.60;;
20441;SDS011;10380;52.102;20.614;2022-07-12T04:31:04;5.63;;;3.00;;
20441;SDS011;10380;52.102;20.614;2022-07-12T04:33:33;5.07;;;3.75;;
20441;SDS011;10380;52.102;20.614;2022-07-12T04:36:01;6.85;;;3.88;;
20441;SDS011;10380;52.102;20.614;2022-07-12T04:38:28;3.60;;;3.30;;
20441;SDS011;10380;52.102;20.614;2022-07-12T04:43:27;4.25;;;3.28;;
20441;SDS011;10380;52.102;20.614;2022-07-12T04:45:54;6.15;;;3.97;;
20441;SDS011;10380;52.102;20.614;2022-07-12T04:48:24;6.18;;;3.00;;
20441;SDS011;10380;52.102;20.614;2022-07-12T04:50:54;5.65;;;3.15;;
20441;SDS011;10380;52.102;20.614;2022-07-12T04:53:21;3.67;;;3.00;;
20441;SDS011;10380;52.102;20.614;2022-07-12T04:55:48;4.90;;;3.53;;
20441;SDS011;10380;52.102;20.614;2022-07-12T04:58:18;5.40;;;3.80;;
20441;SDS011;10380;52.102;20.614;2022-07-12T05:00:45;3.72;;;3.42;;
20441;SDS011;10380;52.102;20.614;2022-07-12T05:03:19;5.40;;;3.30;;
20441;SDS011;10380;52.102;20.614;2022-07-12T05:05:46;5.45;;;3.30;;
20441;SDS011;10380;52.102;20.614;2022-07-12T05:08:13;5.45;;;2.95;;
20441;SDS011;10380;52.102;20.614;2022-07-12T05:10:42;4.35;;;3.53;;
20441;SDS011;10380;52.102;20.614;2022-07-12T05:13:11;4.80;;;3.40;;
20441;SDS011;10380;52.102;20.614;2022-07-12T05:15:39;4.95;;;3.15;;
20441;SDS011;10380;52.102;20.614;2022-07-12T05:18:11;4.72;;;4.03;;
20441;SDS011;10380;52.102;20.614;2022-07-12T05:20:40;5.85;;;3.17;;
20441;SDS011;10380;52.102;20.614;2022-07-12T05:23:17;4.45;;;4.05;;
20441;SDS011;10380;52.102;20.614;2022-07-12T05:25:44;5.95;;;3.45;;
20441;SDS011;10380;52.102;20.614;2022-07-12T05:28:14;6.63;;;4.05;;
20441;SDS011;10380;52.102;20.614;2022-07-12T05:30:42;5.07;;;3.70;;
20441;SDS011;10380;52.102;20.614;2022-07-12T05:33:11;3.72;;;3.42;;
20441;SDS011;10380;52.102;20.614;2022-07-12T05:35:41;4.25;;;3.60;;
20441;SDS011;10380;52.102;20.614;2022-07-12T05:38:08;5.40;;;3.47;;
20441;SDS011;10380;52.102;20.614;2022-07-12T05:40:38;3.97;;;3.25;;
20441;SDS011;10380;52.102;20.614;2022-07-12T05:43:06;4.32;;;3.50;;
20441;SDS011;10380;52.102;20.614;2022-07-12T05:45:34;5.00;;;3.08;;
20441;SDS011;10380;52.102;20.614;2022-07-12T05:48:01;3.65;;;3.35;;
20441;SDS011;10380;52.102;20.614;2022-07-12T05:50:29;3.60;;;3.30;;
20441;SDS011;10380;52.102;20.614;2022-07-12T05:52:56;4.57;;;3.15;;
20441;SDS011;10380;52.102;20.614;2022-07-12T05:55:41;4.60;;;3.55;;
20441;SDS011;10380;52.102;20.614;2022-07-12T05:58:09;4.57;;;3.22;;
20441;SDS011;10380;52.102;20.614;2022-07-12T06:00:39;3.65;;;3.30;;
20441;SDS011;10380;52.102;20.614;2022-07-12T06:03:08;4.15;;;2.95;;
20441;SDS011;10380;52.102;20.614;2022-07-12T06:05:37;7.20;;;3.63;;
20441;SDS011;10380;52.102;20.614;2022-07-12T06:08:05;4.88;;;2.65;;
20441;SDS011;10380;52.102;20.614;2022-07-12T06:10:32;5.63;;;2.95;;
20441;SDS011;10380;52.102;20.614;2022-07-12T06:13:03;2.60;;;2.25;;
20441;SDS011;10380;52.102;20.614;2022-07-12T06:15:33;2.70;;;2.33;;
20441;SDS011;10380;52.102;20.614;2022-07-12T06:18:02;4.05;;;2.85;;
20441;SDS011;10380;52.102;20.614;2022-07-12T06:20:30;5.25;;;3.05;;
20441;SDS011;10380;52.102;20.614;2022-07-12T06:22:57;4.78;;;2.50;;
20441;SDS011;10380;52.102;20.614;2022-07-12T06:25:24;3.80;;;2.78;;
20441;SDS011;10380;52.102;20.614;2022-07-12T06:30:39;3.92;;;3.42;;
20441;SDS011;10380;52.102;20.614;2022-07-12T06:33:07;6.88;;;3.20;;
20441;SDS011;10380;52.102;20.614;2022-07-12T06:35:35;2.90;;;2.70;;
20441;SDS011;10380;52.102;20.614;2022-07-12T06:38:02;4.50;;;3.10;;
20441;SDS011;10380;52.102;20.614;2022-07-12T06:40:35;2.72;;;2.53;;
20441;SDS011;10380;52.102;20.614;2022-07-12T06:43:08;2.88;;;2.10;;
20441;SDS011;10380;52.102;20.614;2022-07-12T06:45:36;3.60;;;2.60;;
20441;SDS011;10380;52.102;20.614;2022-07-12T06:48:04;3.67;;;3.22;;
20441;SDS011;10380;52.102;20.614;2022-07-12T06:50:32;4.00;;;3.08;;
20441;SDS011;10380;52.102;20.614;2022-07-12T06:52:59;3.47;;;2.33;;
20441;SDS011;10380;52.102;20.614;2022-07-12T06:55:27;2.03;;;1.55;;
20441;SDS011;10380;52.102;20.614;2022-07-12T06:57:55;3.03;;;2.70;;
20441;SDS011;10380;52.102;20.614;2022-07-12T07:00:22;2.72;;;2.30;;
20441;SDS011;10380;52.102;20.614;2022-07-12T07:02:49;2.63;;;1.88;;
20441;SDS011;10380;52.102;20.614;2022-07-12T07:05:21;3.92;;;2.42;;
20441;SDS011;10380;52.102;20.614;2022-07-12T07:07:48;2.58;;;2.25;;
20441;SDS011;10380;52.102;20.614;2022-07-12T07:10:15;4.47;;;2.67;;
20441;SDS011;10380;52.102;20.614;2022-07-12T07:12:42;3.03;;;2.72;;
20441;SDS011;10380;52.102;20.614;2022-07-12T07:15:09;2.85;;;2.65;;
20441;SDS011;10380;52.102;20.614;2022-07-12T07:17:36;2.47;;;1.65;;
20441;SDS011;10380;52.102;20.614;2022-07-12T07:20:04;2.30;;;2.10;;
20441;SDS011;10380;52.102;20.614;2022-07-12T07:22:32;2.22;;;1.98;;
20441;SDS011;10380;52.102;20.614;2022-07-12T07:24:59;3.40;;;2.58;;
20441;SDS011;10380;52.102;20.614;2022-07-12T07:27:26;5.68;;;2.30;;
20441;SDS011;10380;52.102;20.614;2022-07-12T07:29:53;3.80;;;2.72;;
20441;SDS011;10380;52.102;20.614;2022-07-12T07:32:39;3.03;;;2.35;;
20441;SDS011;10380;52.102;20.614;2022-07-12T07:35:06;4.88;;;2.55;;
20441;SDS011;10380;52.102;20.614;2022-07-12T07:37:34;1.77;;;1.65;;
20441;SDS011;10380;52.102;20.614;2022-07-12T07:40:01;4.35;;;2.15;;
20441;SDS011;10380;52.102;20.614;2022-07-12T07:42:29;4.70;;;2.15;;
20441;SDS011;10380;52.102;20.614;2022-07-12T07:44:56;4.82;;;1.70;;
20441;SDS011;10380;52.102;20.614;2022-07-12T07:47:42;3.80;;;1.65;;
20441;SDS011;10380;52.102;20.614;2022-07-12T07:50:30;1.65;;;1.55;;
20441;SDS011;10380;52.102;20.614;2022-07-12T07:52:57;3.75;;;2.17;;
20441;SDS011;10380;52.102;20.614;2022-07-12T07:55:24;1.83;;;1.73;;
20441;SDS011;10380;52.102;20.614;2022-07-12T07:57:51;2.25;;;2.10;;
20441;SDS011;10380;52.102;20.614;2022-07-12T08:02:49;2.97;;;2.00;;
20441;SDS011;10380;52.102;20.614;2022-07-12T08:05:16;4.80;;;2.50;;
20441;SDS011;10380;52.102;20.614;2022-07-12T08:07:43;2.10;;;1.80;;
20441;SDS011;10380;52.102;20.614;2022-07-12T08:10:28;5.80;;;2.70;;
20441;SDS011;10380;52.102;20.614;2022-07-12T08:12:55;4.20;;;3.38;;
20441;SDS011;10380;52.102;20.614;2022-07-12T08:15:22;4.18;;;2.75;;
20441;SDS011;10380;52.102;20.614;2022-07-12T08:17:49;3.70;;;3.10;;
20441;SDS011;10380;52.102;20.614;2022-07-12T08:20:21;3.65;;;3.30;;
20441;SDS011;10380;52.102;20.614;2022-07-12T08:23:10;7.55;;;2.63;;
20441;SDS011;10380;52.102;20.614;2022-07-12T08:25:37;3.45;;;2.53;;
20441;SDS011;10380;52.102;20.614;2022-07-12T08:28:04;3.65;;;3.10;;
20441;SDS011;10380;52.102;20.614;2022-07-12T08:30:32;3.45;;;3.15;;
20441;SDS011;10380;52.102;20.614;2022-07-12T08:32:59;6.40;;;3.15;;
20441;SDS011;10380;52.102;20.614;2022-07-12T08:35:27;3.78;;;3.10;;
20441;SDS011;10380;52.102;20.614;2022-07-12T08:37:55;3.45;;;3.15;;
20441;SDS011;10380;52.102;20.614;2022-07-12T08:40:22;3.53;;;2.30;;
20441;SDS011;10380;52.102;20.614;2022-07-12T08:42:50;4.57;;;3.58;;
20441;SDS011;10380;52.102;20.614;2022-07-12T08:45:18;3.10;;;2.90;;
20441;SDS011;10380;52.102;20.614;2022-07-12T08:47:45;3.78;;;2.40;;
20441;SDS011;10380;52.102;20.614;2022-07-12T08:50:16;5.18;;;2.13;;
20441;SDS011;10380;52.102;20.614;2022-07-12T08:52:54;2.88;;;1.95;;
20441;SDS011;10380;52.102;20.614;2022-07-12T08:57:58;4.57;;;2.55;;
20441;SDS011;10380;52.102;20.614;2022-07-12T09:00:26;3.25;;;2.95;;
20441;SDS011;10380;52.102;20.614;2022-07-12T09:02:57;2.80;;;2.45;;
20441;SDS011;10380;52.102;20.614;2022-07-12T09:05:29;6.57;;;3.50;;
20441;SDS011;10380;52.102;20.614;2022-07-12T09:08:04;3.10;;;2.42;;
20441;SDS011;10380;52.102;20.614;2022-07-12T09:10:35;4.35;;;2.92;;
20441;SDS011;10380;52.102;20.614;2022-07-12T09:13:23;4.13;;;2.03;;
20441;SDS011;10380;52.102;20.614;2022-07-12T09:16:16;1.63;;;1.52;;
20441;SDS011;10380;52.102;20.614;2022-07-12T09:18:48;2.50;;;1.60;;
20441;SDS011;10380;52.102;20.614;2022-07-12T09:21:25;1.75;;;1.10;;
20441;SDS011;10380;52.102;20.614;2022-07-12T09:23:54;2.38;;;1.40;;
20441;SDS011;10380;52.102;20.614;2022-07-12T09:26:23;1.35;;;0.77;;
20441;SDS011;10380;52.102;20.614;2022-07-12T09:29:07;3.17;;;1.02;;
20441;SDS011;10380;52.102;20.614;2022-07-12T09:31:49;1.33;;;1.08;;
20441;SDS011;10380;52.102;20.614;2022-07-12T09:34:37;1.20;;;1.10;;
20441;SDS011;10380;52.102;20.614;2022-07-12T09:37:23;3.10;;;1.40;;
20441;SDS011;10380;52.102;20.614;2022-07-12T09:39:52;1.20;;;1.10;;
20441;SDS011;10380;52.102;20.614;2022-07-12T09:42:22;1.10;;;1.00;;
20441;SDS011;10380;52.102;20.614;2022-07-12T09:44:54;2.90;;;2.00;;
20441;SDS011;10380;52.102;20.614;2022-07-12T09:47:24;1.45;;;1.20;;
20441;SDS011;10380;52.102;20.614;2022-07-12T09:49:55;3.33;;;1.55;;
20441;SDS011;10380;52.102;20.614;2022-07-12T09:52:23;1.50;;;1.40;;
20441;SDS011;10380;52.102;20.614;2022-07-12T09:54:54;1.50;;;1.40;;
20441;SDS011;10380;52.102;20.614;2022-07-12T09:57:26;3.08;;;1.50;;
20441;SDS011;10380;52.102;20.614;2022-07-12T09:59:59;3.45;;;1.60;;
20441;SDS011;10380;52.102;20.614;2022-07-12T10:02:28;2.60;;;1.50;;
20441;SDS011;10380;52.102;20.614;2022-07-12T10:04:56;0.95;;;0.82;;
20441;SDS011;10380;52.102;20.614;2022-07-12T10:07:26;1.30;;;1.00;;
20441;SDS011;10380;52.102;20.614;2022-07-12T10:09:54;1.40;;;1.17;;
20441;SDS011;10380;52.102;20.614;2022-07-12T10:12:22;2.13;;;1.08;;
20441;SDS011;10380;52.102;20.614;2022-07-12T10:14:51;1.48;;;1.15;;
20441;SDS011;10380;52.102;20.614;2022-07-12T10:17:24;1.80;;;0.75;;
20441;SDS011;10380;52.102;20.614;2022-07-12T10:22:42;2.00;;;1.10;;
20441;SDS011;10380;52.102;20.614;2022-07-12T10:28:03;4.20;;;1.05;;
20441;SDS011;10380;52.102;20.614;2022-07-12T10:30:30;1.58;;;0.90;;
20441;SDS011;10380;52.102;20.614;2022-07-12T10:33:16;1.85;;;1.65;;
20441;SDS011;10380;52.102;20.614;2022-07-12T10:36:00;2.30;;;1.30;;
20441;SDS011;10380;52.102;20.614;2022-07-12T10:38:40;2.00;;;1.15;;
20441;SDS011;10380;52.102;20.614;2022-07-12T10:41:18;2.83;;;0.90;;
20441;SDS011;10380;52.102;20.614;2022-07-12T10:44:02;2.60;;;0.90;;
20441;SDS011;10380;52.102;20.614;2022-07-12T10:46:33;2.13;;;1.00;;
20441;SDS011;10380;52.102;20.614;2022-07-12T10:52:30;3.97;;;0.95;;
20441;SDS011;10380;52.102;20.614;2022-07-12T10:57:42;1.48;;;0.88;;
20441;SDS011;10380;52.102;20.614;2022-07-12T11:00:11;2.40;;;0.82;;
20441;SDS011;10380;52.102;20.614;2022-07-12T11:02:40;3.10;;;0.73;;
20441;SDS011;10380;52.102;20.614;2022-07-12T11:05:08;0.80;;;0.80;;
20441;SDS011;10380;52.102;20.614;2022-07-12T11:07:35;4.68;;;1.10;;
20441;SDS011;10380;52.102;20.614;2022-07-12T11:10:03;1.63;;;1.20;;
20441;SDS011;10380;52.102;20.614;2022-07-12T11:12:31;1.02;;;0.90;;
20441;SDS011;10380;52.102;20.614;2022-07-12T11:14:59;3.70;;;0.90;;
20441;SDS011;10380;52.102;20.614;2022-07-12T11:17:30;2.70;;;0.80;;
20441;SDS011;10380;52.102;20.614;2022-07-12T11:20:06;7.30;;;1.58;;
20441;SDS011;10380;52.102;20.614;2022-07-12T11:22:35;2.00;;;1.00;;
20441;SDS011;10380;52.102;20.614;2022-07-12T11:25:11;1.00;;;0.75;;
20441;SDS011;10380;52.102;20.614;2022-07-12T11:27:39;0.88;;;0.80;;
20441;SDS011;10380;52.102;20.614;2022-07-12T11:30:07;1.98;;;1.10;;
20441;SDS011;10380;52.102;20.614;2022-07-12T11:35:02;0.95;;;0.95;;
20441;SDS011;10380;52.102;20.614;2022-07-12T11:37:30;2.17;;;1.35;;
20441;SDS011;10380;52.102;20.614;2022-07-12T11:39:59;3.40;;;1.00;;
20441;SDS011;10380;52.102;20.614;2022-07-12T11:42:25;1.77;;;1.27;;
20441;SDS011;10380;52.102;20.614;2022-07-12T11:44:52;1.08;;;0.90;;
20441;SDS011;10380;52.102;20.614;2022-07-12T11:47:23;2.88;;;1.10;;
20441;SDS011;10380;52.102;20.614;2022-07-12T11:49:54;1.30;;;0.77;;
20441;SDS011;10380;52.102;20.614;2022-07-12T11:52:23;1.13;;;0.90;;
20441;SDS011;10380;52.102;20.614;2022-07-12T11:54:51;0.70;;;0.70;;
20441;SDS011;10380;52.102;20.614;2022-07-12T11:57:19;2.00;;;0.80;;
20441;SDS011;10380;52.102;20.614;2022-07-12T11:59:48;1.83;;;1.13;;
20441;SDS011;10380;52.102;20.614;2022-07-12T12:02:16;1.10;;;0.80;;
20441;SDS011;10380;52.102;20.614;2022-07-12T12:04:49;1.35;;;1.00;;
20441;SDS011;10380;52.102;20.614;2022-07-12T12:07:19;1.48;;;0.95;;
20441;SDS011;10380;52.102;20.614;2022-07-12T12:12:49;0.95;;;0.80;;
20441;SDS011;10380;52.102;20.614;2022-07-12T12:20:24;2.38;;;1.00;;
20441;SDS011;10380;52.102;20.614;2022-07-12T12:22:56;0.65;;;0.65;;
20441;SDS011;10380;52.102;20.614;2022-07-12T12:25:26;1.15;;;1.00;;
20441;SDS011;10380;52.102;20.614;2022-07-12T12:30:59;1.13;;;0.82;;
20441;SDS011;10380;52.102;20.614;2022-07-12T12:33:33;1.48;;;1.13;;
20441;SDS011;10380;52.102;20.614;2022-07-12T12:36:17;0.73;;;0.70;;
20441;SDS011;10380;52.102;20.614;2022-07-12T12:38:50;1.67;;;0.80;;
20441;SDS011;10380;52.102;20.614;2022-07-12T12:41:25;2.17;;;0.75;;
20441;SDS011;10380;52.102;20.614;2022-07-12T12:44:00;1.65;;;0.80;;
20441;SDS011;10380;52.102;20.614;2022-07-12T12:49:52;0.60;;;0.60;;
20441;SDS011;10380;52.102;20.614;2022-07-12T12:52:23;0.77;;;0.77;;
20441;SDS011;10380;52.102;20.614;2022-07-12T12:54:52;2.55;;;0.80;;
20441;SDS011;10380;52.102;20.614;2022-07-12T12:57:21;1.40;;;0.88;;
20441;SDS011;10380;52.102;20.614;2022-07-12T12:59:50;0.80;;;0.68;;
20441;SDS011;10380;52.102;20.614;2022-07-12T13:02:22;1.35;;;0.73;;
20441;SDS011;10380;52.102;20.614;2022-07-12T13:04:52;3.90;;;0.70;;
20441;SDS011;10380;52.102;20.614;2022-07-12T13:07:19;2.20;;;0.80;;
20441;SDS011;10380;52.102;20.614;2022-07-12T13:09:46;4.30;;;1.10;;
20441;SDS011;10380;52.102;20.614;2022-07-12T13:12:13;1.60;;;0.95;;
20441;SDS011;10380;52.102;20.614;2022-07-12T13:14:40;0.90;;;0.80;;
20441;SDS011;10380;52.102;20.614;2022-07-12T13:17:07;3.15;;;1.08;;
20441;SDS011;10380;52.102;20.614;2022-07-12T13:19:34;0.75;;;0.60;;
20441;SDS011;10380;52.102;20.614;2022-07-12T13:22:03;2.42;;;0.75;;
20441;SDS011;10380;52.102;20.614;2022-07-12T13:24:31;2.25;;;0.70;;
20441;SDS011;10380;52.102;20.614;2022-07-12T13:26:58;2.45;;;0.88;;
20441;SDS011;10380;52.102;20.614;2022-07-12T13:29:25;5.97;;;1.50;;
20441;SDS011;10380;52.102;20.614;2022-07-12T13:31:52;5.38;;;0.70;;
20441;SDS011;10380;52.102;20.614;2022-07-12T13:34:22;2.33;;;0.93;;
20441;SDS011;10380;52.102;20.614;2022-07-12T13:36:50;1.73;;;0.80;;
20441;SDS011;10380;52.102;20.614;2022-07-12T13:39:18;0.80;;;0.80;;
20441;SDS011;10380;52.102;20.614;2022-07-12T13:42:03;2.28;;;0.93;;
20441;SDS011;10380;52.102;20.614;2022-07-12T13:44:30;4.60;;;0.60;;
20441;SDS011;10380;52.102;20.614;2022-07-12T13:46:57;2.85;;;0.93;;
20441;SDS011;10380;52.102;20.614;2022-07-12T13:49:24;2.00;;;0.93;;
20441;SDS011;10380;52.102;20.614;2022-07-12T13:51:51;0.88;;;0.70;;
20441;SDS011;10380;52.102;20.614;2022-07-12T13:54:18;1.88;;;0.80;;
20441;SDS011;10380;52.102;20.614;2022-07-12T13:56:48;3.90;;;0.95;;
20441;SDS011;10380;52.102;20.614;2022-07-12T13:59:15;0.80;;;0.60;;
20441;SDS011;10380;52.102;20.614;2022-07-12T14:01:42;1.40;;;0.93;;
20441;SDS011;10380;52.102;20.614;2022-07-12T14:04:11;3.72;;;1.17;;
20441;SDS011;10380;52.102;20.614;2022-07-12T14:06:39;2.05;;;0.77;;
20441;SDS011;10380;52.102;20.614;2022-07-12T14:09:12;1.13;;;0.60;;
20441;SDS011;10380;52.102;20.614;2022-07-12T14:11:39;1.05;;;0.88;;
20441;SDS011;10380;52.102;20.614;2022-07-12T14:14:06;3.33;;;1.10;;
20441;SDS011;10380;52.102;20.614;2022-07-12T14:16:33;2.03;;;0.77;;
20441;SDS011;10380;52.102;20.614;2022-07-12T14:19:01;1.58;;;0.80;;
20441;SDS011;10380;52.102;20.614;2022-07-12T14:21:30;1.60;;;0.73;;
20441;SDS011;10380;52.102;20.614;2022-07-12T14:23:57;1.05;;;0.80;;
20441;SDS011;10380;52.102;20.614;2022-07-12T14:26:29;0.90;;;0.50;;
20441;SDS011;10380;52.102;20.614;2022-07-12T14:28:56;2.30;;;1.00;;
20441;SDS011;10380;52.102;20.614;2022-07-12T14:31:23;1.63;;;0.70;;
20441;SDS011;10380;52.102;20.614;2022-07-12T14:33:52;2.20;;;0.80;;
20441;SDS011;10380;52.102;20.614;2022-07-12T14:36:19;4.30;;;0.70;;
20441;SDS011;10380;52.102;20.614;2022-07-12T14:38:47;1.92;;;1.00;;
20441;SDS011;10380;52.102;20.614;2022-07-12T14:41:19;2.08;;;0.80;;
20441;SDS011;10380;52.102;20.614;2022-07-12T14:43:46;1.27;;;0.70;;
20441;SDS011;10380;52.102;20.614;2022-07-12T14:46:17;4.32;;;1.00;;
20441;SDS011;10380;52.102;20.614;2022-07-12T14:48:44;2.33;;;0.75;;
20441;SDS011;10380;52.102;20.614;2022-07-12T14:51:13;1.27;;;1.13;;
20441;SDS011;10380;52.102;20.614;2022-07-12T14:53:40;5.68;;;0.80;;
20441;SDS011;10380;52.102;20.614;2022-07-12T14:56:07;3.85;;;1.30;;
20441;SDS011;10380;52.102;20.614;2022-07-12T14:58:41;0.98;;;0.60;;
20441;SDS011;10380;52.102;20.614;2022-07-12T15:01:08;1.40;;;0.60;;
20441;SDS011;10380;52.102;20.614;2022-07-12T15:03:37;0.98;;;0.70;;
20441;SDS011;10380;52.102;20.614;2022-07-12T15:06:04;3.38;;;1.00;;
20441;SDS011;10380;52.102;20.614;2022-07-12T15:08:31;2.53;;;0.90;;
20441;SDS011;10380;52.102;20.614;2022-07-12T15:10:59;0.80;;;0.60;;
20441;SDS011;10380;52.102;20.614;2022-07-12T15:13:28;1.38;;;0.80;;
20441;SDS011;10380;52.102;20.614;2022-07-12T15:15:56;2.03;;;0.80;;
20441;SDS011;10380;52.102;20.614;2022-07-12T15:18:29;8.25;;;0.80;;
20441;SDS011;10380;52.102;20.614;2022-07-12T15:20:56;7.50;;;1.20;;
20441;SDS011;10380;52.102;20.614;2022-07-12T15:23:23;3.00;;;0.75;;
20441;SDS011;10380;52.102;20.614;2022-07-12T15:25:52;2.10;;;0.60;;
20441;SDS011;10380;52.102;20.614;2022-07-12T15:28:20;1.45;;;1.00;;
20441;SDS011;10380;52.102;20.614;2022-07-12T15:30:49;3.38;;;1.33;;